Tahitian Princess — ZCDD8 — position and weather

sailwx.info

Track history (hours):
 
Tides and Currents Weather Stations Pressure Air Temp Water Temp Dewpoint Dewpoint Depression Visibility Wind Speed Wind Dir Waves Ship Positions

Tahitian Princess

Operator: P & O Irish Sea Ltd

Last reported at 2019-Dec-12 09:00 UTC. Time now 2019-Dec-12 09:28 UTC.
Position N 53°21' W 006°13'.

Length 167 m; draft 5.7 m.

Type: Ship (hazmat cat A). MMSI: 310362000.

Date/timePositionNaut miles runAvg speedWind from/ knotsBaromVisibWave heightAir tempDewpointWater temp
2019-Dec-12 09:00N 53°21' W 006°13'0 0.0
2019-Dec-12 07:30N 53°21' W 006°13'3 2.0
2019-Dec-12 06:00N 53°21' W 006°08'7719.0
2019-Dec-12 01:56N 53°34' W 004°00'919.8
2019-Dec-12 01:30N 53°33' W 003°46'1919.2
2019-Dec-12 00:30N 53°31' W 003°14'816.4
2019-Dec-12 00:00N 53°27' W 003°02'1 0.5
2019-Dec-11 22:30N 53°27' W 003°01'0 0.0
2019-Dec-11 21:00N 53°27' W 003°01'0 0.0
2019-Dec-11 19:30N 53°27' W 003°01'10712.0
2019-Dec-11 10:35N 53°21' W 005°60'8 4.8
2019-Dec-11 08:57N 53°21' W 006°13'0 0.0
2019-Dec-11 07:21N 53°21' W 006°13'3 2.3
2019-Dec-11 06:00N 53°21' W 006°08'11215.9
2019-Dec-10 22:59N 53°27' W 003°01'0 0.1
2019-Dec-10 21:59N 53°27' W 003°01'0 0.0
2019-Dec-10 20:30N 53°27' W 003°01'0 0.0
2019-Dec-10 18:30N 53°27' W 003°01'5 2.7
2019-Dec-10 16:30N 53°31' W 003°07'10016.4
2019-Dec-10 10:25N 53°19' W 005°54'1212.8
2019-Dec-10 09:30N 53°21' W 006°13'0 0.3
2019-Dec-10 09:00N 53°21' W 006°13'0 0.0
2019-Dec-10 06:27N 53°21' W 006°13'6 3.2
2019-Dec-10 04:30N 53°21' W 006°03'10916.7
2019-Dec-09 22:00N 53°27' W 003°01'1 0.7
2019-Dec-09 20:58N 53°27' W 003°01'0 0.0
2019-Dec-09 20:28N 53°27' W 003°01'0 0.0
2019-Dec-09 19:58N 53°27' W 003°01'0 0.0
2019-Dec-09 18:00N 53°27' W 003°01'0 0.0
2019-Dec-09 07:00N 53°27' W 003°01'0 0.0
2019-Dec-09 04:30N 53°27' W 003°01'0 0.0
2019-Dec-09 03:30N 53°27' W 003°01'0 0.0
2019-Dec-08 22:30N 53°27' W 003°01'0 0.0
2019-Dec-08 20:31N 53°27' W 003°01'0 0.0
2019-Dec-08 20:00N 53°27' W 003°01'0 0.0
2019-Dec-08 18:00N 53°27' W 003°01'0 0.0
2019-Dec-08 17:00N 53°27' W 003°01'10715.3
2019-Dec-08 10:00N 53°21' W 006°01'7 7.3
2019-Dec-08 08:59N 53°21' W 006°13'9010.0
2019-Dec-08 00:01N 53°34' W 003°44'918.2
2019-Dec-07 23:31N 53°33' W 003°29'18 8.8
2019-Dec-07 21:31N 53°27' W 003°01'0 0.0
2019-Dec-07 20:30N 53°27' W 003°01'7 1.4
2019-Dec-07 15:31N 53°32' W 003°11'1918.9
2019-Dec-07 14:30N 53°32' W 003°43'1018.9
2019-Dec-07 13:59N 53°33' W 003°59'7118.1
2019-Dec-07 10:05N 53°22' W 005°57'914.9
2019-Dec-07 09:30N 53°21' W 006°11'1 1.4
2019-Dec-07 08:30N 53°21' W 006°13'0 0.0
2019-Dec-07 07:00N 53°21' W 006°13'0 0.0
2019-Dec-07 06:30N 53°21' W 006°13'6 3.1
2019-Dec-07 04:30N 53°21' W 006°03'7218.0
2019-Dec-07 00:32N 53°34' W 004°05'1118.8
2019-Dec-06 23:58N 53°34' W 003°47'918.8
2019-Dec-06 23:30N 53°33' W 003°32'19 9.7
2019-Dec-06 21:31N 53°27' W 003°01'0 0.0
2019-Dec-06 20:59N 53°27' W 003°01'0 0.0
2019-Dec-06 20:00N 53°27' W 003°01'0 0.0
2019-Dec-06 19:30N 53°27' W 003°01'0 0.0
2019-Dec-06 18:00N 53°27' W 003°01'0 0.0
2019-Dec-06 17:00N 53°27' W 003°01'0 0.5
2019-Dec-06 16:00N 53°27' W 003°01'2113.8
2019-Dec-06 14:30N 53°31' W 003°35'918.1
2019-Dec-06 14:01N 53°32' W 003°50'8612.3
2019-Dec-06 07:00N 53°21' W 006°13'0 0.0
2019-Dec-06 06:30N 53°21' W 006°13'11 5.7
2019-Dec-06 04:30N 53°23' W 005°54'10217.0
2019-Dec-05 22:30N 53°28' W 003°03'2 0.5
2019-Dec-05 19:29N 53°27' W 003°01'0 0.0
2019-Dec-05 18:29N 53°27' W 003°01'0 0.0
2019-Dec-05 17:29N 53°27' W 003°01'0 0.4
2019-Dec-05 16:30N 53°27' W 003°01'4 4.3
2019-Dec-05 15:30N 53°30' W 003°06'11217.2
2019-Dec-05 09:00N 53°21' W 006°13'0 0.0
2019-Dec-05 06:00N 53°21' W 006°13'4 7.5
2019-Dec-05 05:30N 53°20' W 006°07'917.2
2019-Dec-05 05:00N 53°24' W 005°53'6519.1
2019-Dec-05 01:34N 53°35' W 004°05'1119.6
2019-Dec-05 01:00N 53°34' W 003°46'28 4.6
2019-Dec-04 19:00N 53°27' W 003°01'4 2.2
2019-Dec-04 17:01N 53°31' W 003°06'10413.9
2019-Dec-04 09:30N 53°20' W 005°60'8 7.8
2019-Dec-04 08:30N 53°21' W 006°13'0 0.0
2019-Dec-04 06:30N 53°21' W 006°13'0 0.0
2019-Dec-04 05:30N 53°21' W 006°13'0 0.1
2019-Dec-04 05:00N 53°21' W 006°13'1312.7
2019-Dec-04 04:01N 53°23' W 005°52'7717.1
2019-Dec-03 23:30N 53°34' W 003°44'2713.3
2019-Dec-03 21:30N 53°27' W 003°01'0 0.9
2019-Dec-03 21:00N 53°27' W 003°01'0 0.0
2019-Dec-03 20:29N 53°27' W 003°01'0 0.0
2019-Dec-03 19:59N 53°27' W 003°01'0 0.0
2019-Dec-03 16:59N 53°27' W 003°01'14 6.9
2019-Dec-03 15:00N 53°31' W 003°23'2617.3
2019-Dec-03 13:30N 53°32' W 004°07'6917.0
2019-Dec-03 09:27N 53°21' W 006°01'613.0
2019-Dec-03 09:00N 53°21' W 006°11'1 2.7
2019-Dec-03 08:30N 53°21' W 006°13'0 0.0
2019-Dec-03 06:24N 53°21' W 006°13'0 0.0
2019-Dec-03 05:21N 53°21' W 006°13'4 4.9
2019-Dec-03 04:30N 53°20' W 006°06'918.4
2019-Dec-03 04:00N 53°23' W 005°52'6416.8
2019-Dec-03 00:12N 53°34' W 004°06'1916.1
2019-Dec-02 23:00N 53°33' W 003°33'4 8.5
2019-Dec-02 22:30N 53°33' W 003°26'1514.6
2019-Dec-02 21:30N 53°28' W 003°03'1 0.6
2019-Dec-02 19:28N 53°27' W 003°01'0 0.0
2019-Dec-02 19:00N 53°27' W 003°01'0 0.0
2019-Dec-02 18:30N 53°27' W 003°01'0 0.0
2019-Dec-02 17:30N 53°27' W 003°01'0 0.0
2019-Dec-02 17:00N 53°27' W 003°01'0 0.0
2019-Dec-02 16:00N 53°27' W 003°01'0 0.0
2019-Dec-02 13:00N 53°27' W 003°01'0 0.0
2019-Dec-02 11:31N 53°27' W 003°01'  
Track history (hours):
 
Tides and Currents Weather Stations Pressure Air Temp Water Temp Dewpoint Dewpoint Depression Visibility Wind Speed Wind Dir Waves Ship Positions

Tahitian Princess

Operator: P & O Irish Sea Ltd

Last reported at 2019-Dec-12 09:00 UTC. Time now 2019-Dec-12 09:28 UTC.
Position N 53°21' W 006°13'.

Length 167 m; draft 5.7 m.

Type: Ship (hazmat cat A). MMSI: 310362000.

Date/timePositionNaut miles runAvg speedWind from/ knotsBaromVisibWave heightAir tempDewpointWater temp
2019-Dec-12 09:00N 53°21' W 006°13'0 0.0
2019-Dec-12 07:30N 53°21' W 006°13'3 2.0
2019-Dec-12 06:00N 53°21' W 006°08'7719.0
2019-Dec-12 01:56N 53°34' W 004°00'919.8
2019-Dec-12 01:30N 53°33' W 003°46'1919.2
2019-Dec-12 00:30N 53°31' W 003°14'816.4
2019-Dec-12 00:00N 53°27' W 003°02'1 0.5
2019-Dec-11 22:30N 53°27' W 003°01'0 0.0
2019-Dec-11 21:00N 53°27' W 003°01'0 0.0
2019-Dec-11 19:30N 53°27' W 003°01'10712.0
2019-Dec-11 10:35N 53°21' W 005°60'8 4.8
2019-Dec-11 08:57N 53°21' W 006°13'0 0.0
2019-Dec-11 07:21N 53°21' W 006°13'3 2.3
2019-Dec-11 06:00N 53°21' W 006°08'11215.9
2019-Dec-10 22:59N 53°27' W 003°01'0 0.1
2019-Dec-10 21:59N 53°27' W 003°01'0 0.0
2019-Dec-10 20:30N 53°27' W 003°01'0 0.0
2019-Dec-10 18:30N 53°27' W 003°01'5 2.7
2019-Dec-10 16:30N 53°31' W 003°07'10016.4
2019-Dec-10 10:25N 53°19' W 005°54'1212.8
2019-Dec-10 09:30N 53°21' W 006°13'0 0.3
2019-Dec-10 09:00N 53°21' W 006°13'0 0.0
2019-Dec-10 06:27N 53°21' W 006°13'6 3.2
2019-Dec-10 04:30N 53°21' W 006°03'10916.7
2019-Dec-09 22:00N 53°27' W 003°01'1 0.7
2019-Dec-09 20:58N 53°27' W 003°01'0 0.0
2019-Dec-09 20:28N 53°27' W 003°01'0 0.0
2019-Dec-09 19:58N 53°27' W 003°01'0 0.0
2019-Dec-09 18:00N 53°27' W 003°01'0 0.0
2019-Dec-09 07:00N 53°27' W 003°01'0 0.0
2019-Dec-09 04:30N 53°27' W 003°01'0 0.0
2019-Dec-09 03:30N 53°27' W 003°01'0 0.0
2019-Dec-08 22:30N 53°27' W 003°01'0 0.0
2019-Dec-08 20:31N 53°27' W 003°01'0 0.0
2019-Dec-08 20:00N 53°27' W 003°01'0 0.0
2019-Dec-08 18:00N 53°27' W 003°01'0 0.0
2019-Dec-08 17:00N 53°27' W 003°01'10715.3
2019-Dec-08 10:00N 53°21' W 006°01'7 7.3
2019-Dec-08 08:59N 53°21' W 006°13'9010.0
2019-Dec-08 00:01N 53°34' W 003°44'918.2
2019-Dec-07 23:31N 53°33' W 003°29'18 8.8
2019-Dec-07 21:31N 53°27' W 003°01'0 0.0
2019-Dec-07 20:30N 53°27' W 003°01'7 1.4
2019-Dec-07 15:31N 53°32' W 003°11'1918.9
2019-Dec-07 14:30N 53°32' W 003°43'1018.9
2019-Dec-07 13:59N 53°33' W 003°59'7118.1
2019-Dec-07 10:05N 53°22' W 005°57'914.9
2019-Dec-07 09:30N 53°21' W 006°11'1 1.4
2019-Dec-07 08:30N 53°21' W 006°13'0 0.0
2019-Dec-07 07:00N 53°21' W 006°13'0 0.0
2019-Dec-07 06:30N 53°21' W 006°13'6 3.1
2019-Dec-07 04:30N 53°21' W 006°03'7218.0
2019-Dec-07 00:32N 53°34' W 004°05'1118.8
2019-Dec-06 23:58N 53°34' W 003°47'918.8
2019-Dec-06 23:30N 53°33' W 003°32'19 9.7
2019-Dec-06 21:31N 53°27' W 003°01'0 0.0
2019-Dec-06 20:59N 53°27' W 003°01'0 0.0
2019-Dec-06 20:00N 53°27' W 003°01'0 0.0
2019-Dec-06 19:30N 53°27' W 003°01'0 0.0
2019-Dec-06 18:00N 53°27' W 003°01'0 0.0
2019-Dec-06 17:00N 53°27' W 003°01'0 0.5
2019-Dec-06 16:00N 53°27' W 003°01'2113.8
2019-Dec-06 14:30N 53°31' W 003°35'918.1
2019-Dec-06 14:01N 53°32' W 003°50'8612.3
2019-Dec-06 07:00N 53°21' W 006°13'0 0.0
2019-Dec-06 06:30N 53°21' W 006°13'11 5.7
2019-Dec-06 04:30N 53°23' W 005°54'10217.0
2019-Dec-05 22:30N 53°28' W 003°03'2 0.5
2019-Dec-05 19:29N 53°27' W 003°01'0 0.0
2019-Dec-05 18:29N 53°27' W 003°01'0 0.0
2019-Dec-05 17:29N 53°27' W 003°01'0 0.4
2019-Dec-05 16:30N 53°27' W 003°01'4 4.3
2019-Dec-05 15:30N 53°30' W 003°06'11217.2
2019-Dec-05 09:00N 53°21' W 006°13'0 0.0
2019-Dec-05 06:00N 53°21' W 006°13'4 7.5
2019-Dec-05 05:30N 53°20' W 006°07'917.2
2019-Dec-05 05:00N 53°24' W 005°53'6519.1
2019-Dec-05 01:34N 53°35' W 004°05'1119.6
2019-Dec-05 01:00N 53°34' W 003°46'28 4.6
2019-Dec-04 19:00N 53°27' W 003°01'4 2.2
2019-Dec-04 17:01N 53°31' W 003°06'10413.9
2019-Dec-04 09:30N 53°20' W 005°60'8 7.8
2019-Dec-04 08:30N 53°21' W 006°13'0 0.0
2019-Dec-04 06:30N 53°21' W 006°13'0 0.0
2019-Dec-04 05:30N 53°21' W 006°13'0 0.1
2019-Dec-04 05:00N 53°21' W 006°13'1312.7
2019-Dec-04 04:01N 53°23' W 005°52'7717.1
2019-Dec-03 23:30N 53°34' W 003°44'2713.3
2019-Dec-03 21:30N 53°27' W 003°01'0 0.9
2019-Dec-03 21:00N 53°27' W 003°01'0 0.0
2019-Dec-03 20:29N 53°27' W 003°01'0 0.0
2019-Dec-03 19:59N 53°27' W 003°01'0 0.0
2019-Dec-03 16:59N 53°27' W 003°01'14 6.9
2019-Dec-03 15:00N 53°31' W 003°23'2617.3
2019-Dec-03 13:30N 53°32' W 004°07'6917.0
2019-Dec-03 09:27N 53°21' W 006°01'613.0
2019-Dec-03 09:00N 53°21' W 006°11'1 2.7
2019-Dec-03 08:30N 53°21' W 006°13'0 0.0
2019-Dec-03 06:24N 53°21' W 006°13'0 0.0
2019-Dec-03 05:21N 53°21' W 006°13'4 4.9
2019-Dec-03 04:30N 53°20' W 006°06'918.4
2019-Dec-03 04:00N 53°23' W 005°52'6416.8
2019-Dec-03 00:12N 53°34' W 004°06'1916.1
2019-Dec-02 23:00N 53°33' W 003°33'4 8.5
2019-Dec-02 22:30N 53°33' W 003°26'1514.6
2019-Dec-02 21:30N 53°28' W 003°03'1 0.6
2019-Dec-02 19:28N 53°27' W 003°01'0 0.0
2019-Dec-02 19:00N 53°27' W 003°01'0 0.0
2019-Dec-02 18:30N 53°27' W 003°01'0 0.0
2019-Dec-02 17:30N 53°27' W 003°01'0 0.0
2019-Dec-02 17:00N 53°27' W 003°01'0 0.0
2019-Dec-02 16:00N 53°27' W 003°01'0 0.0
2019-Dec-02 13:00N 53°27' W 003°01'0 0.0
2019-Dec-02 11:31N 53°27' W 003°01'  

Dump ship's entire track history